sensor_id;sensor_type;location;lat;lon;timestamp;temperature;humidity
11736;DHT22;5924;51.398;7.088;2023-11-19T00:00:25;10.30;99.90
11736;DHT22;5924;51.398;7.088;2023-11-19T00:02:51;10.30;99.90
11736;DHT22;5924;51.398;7.088;2023-11-19T00:05:17;8.30;99.90
11736;DHT22;5924;51.398;7.088;2023-11-19T00:07:42;10.30;99.90
11736;DHT22;5924;51.398;7.088;2023-11-19T00:10:13;10.40;99.90
11736;DHT22;5924;51.398;7.088;2023-11-19T00:12:41;11.60;99.90
11736;DHT22;5924;51.398;7.088;2023-11-19T00:15:07;10.50;99.90
11736;DHT22;5924;51.398;7.088;2023-11-19T00:17:40;10.50;99.90
11736;DHT22;5924;51.398;7.088;2023-11-19T00:20:13;10.50;99.90
11736;DHT22;5924;51.398;7.088;2023-11-19T00:22:39;10.60;99.90
11736;DHT22;5924;51.398;7.088;2023-11-19T00:25:06;10.60;99.90
11736;DHT22;5924;51.398;7.088;2023-11-19T00:27:31;10.70;99.90
11736;DHT22;5924;51.398;7.088;2023-11-19T00:29:57;10.70;99.90
11736;DHT22;5924;51.398;7.088;2023-11-19T00:32:23;10.70;99.90
11736;DHT22;5924;51.398;7.088;2023-11-19T00:34:48;10.80;99.90
11736;DHT22;5924;51.398;7.088;2023-11-19T00:37:15;10.90;99.90
11736;DHT22;5924;51.398;7.088;2023-11-19T00:39:41;10.90;99.90
11736;DHT22;5924;51.398;7.088;2023-11-19T00:42:07;10.90;99.90
11736;DHT22;5924;51.398;7.088;2023-11-19T00:44:33;10.90;99.90
11736;DHT22;5924;51.398;7.088;2023-11-19T00:46:58;10.90;99.90
11736;DHT22;5924;51.398;7.088;2023-11-19T00:49:25;10.90;99.90
11736;DHT22;5924;51.398;7.088;2023-11-19T00:51:51;10.90;99.90
11736;DHT22;5924;51.398;7.088;2023-11-19T00:54:17;11.00;99.90
11736;DHT22;5924;51.398;7.088;2023-11-19T00:56:42;11.00;99.90
11736;DHT22;5924;51.398;7.088;2023-11-19T00:59:08;11.00;99.90
11736;DHT22;5924;51.398;7.088;2023-11-19T01:01:34;11.10;99.90
11736;DHT22;5924;51.398;7.088;2023-11-19T01:03:59;11.10;99.90
11736;DHT22;5924;51.398;7.088;2023-11-19T01:06:31;11.10;99.90
11736;DHT22;5924;51.398;7.088;2023-11-19T01:08:58;11.10;99.90
11736;DHT22;5924;51.398;7.088;2023-11-19T01:11:25;11.10;99.90
11736;DHT22;5924;51.398;7.088;2023-11-19T01:13:51;11.20;99.90
11736;DHT22;5924;51.398;7.088;2023-11-19T01:16:17;11.20;99.90
11736;DHT22;5924;51.398;7.088;2023-11-19T01:18:44;11.20;99.90
11736;DHT22;5924;51.398;7.088;2023-11-19T01:21:10;11.20;99.90
11736;DHT22;5924;51.398;7.088;2023-11-19T01:23:36;11.20;99.90
11736;DHT22;5924;51.398;7.088;2023-11-19T01:26:02;11.20;99.90
11736;DHT22;5924;51.398;7.088;2023-11-19T01:28:28;11.20;99.90
11736;DHT22;5924;51.398;7.088;2023-11-19T01:30:54;11.20;99.90
11736;DHT22;5924;51.398;7.088;2023-11-19T01:33:20;11.20;99.90
11736;DHT22;5924;51.398;7.088;2023-11-19T01:35:46;11.20;99.90
11736;DHT22;5924;51.398;7.088;2023-11-19T01:38:12;11.20;99.90
11736;DHT22;5924;51.398;7.088;2023-11-19T01:40:38;11.30;99.90
11736;DHT22;5924;51.398;7.088;2023-11-19T01:43:03;11.20;99.90
11736;DHT22;5924;51.398;7.088;2023-11-19T01:45:30;11.30;99.90
11736;DHT22;5924;51.398;7.088;2023-11-19T01:47:57;11.30;99.90
11736;DHT22;5924;51.398;7.088;2023-11-19T01:50:24;11.30;99.90
11736;DHT22;5924;51.398;7.088;2023-11-19T01:52:54;11.30;99.90
11736;DHT22;5924;51.398;7.088;2023-11-19T01:55:21;11.30;99.90
11736;DHT22;5924;51.398;7.088;2023-11-19T01:57:48;11.30;99.90
11736;DHT22;5924;51.398;7.088;2023-11-19T02:00:14;11.40;99.90
11736;DHT22;5924;51.398;7.088;2023-11-19T02:02:42;11.30;99.90
11736;DHT22;5924;51.398;7.088;2023-11-19T02:05:10;11.40;99.90
11736;DHT22;5924;51.398;7.088;2023-11-19T02:07:36;11.40;99.90
11736;DHT22;5924;51.398;7.088;2023-11-19T02:10:02;11.40;99.90
11736;DHT22;5924;51.398;7.088;2023-11-19T02:12:28;11.40;99.90
11736;DHT22;5924;51.398;7.088;2023-11-19T02:14:54;11.40;99.90
11736;DHT22;5924;51.398;7.088;2023-11-19T02:17:30;11.40;99.90
11736;DHT22;5924;51.398;7.088;2023-11-19T02:20:00;11.50;99.90
11736;DHT22;5924;51.398;7.088;2023-11-19T02:22:25;11.40;99.90
11736;DHT22;5924;51.398;7.088;2023-11-19T02:24:56;11.50;99.90
11736;DHT22;5924;51.398;7.088;2023-11-19T02:30:01;11.50;99.90
11736;DHT22;5924;51.398;7.088;2023-11-19T02:32:28;11.50;99.90
11736;DHT22;5924;51.398;7.088;2023-11-19T02:34:56;11.50;99.90
11736;DHT22;5924;51.398;7.088;2023-11-19T02:37:21;11.50;99.90
11736;DHT22;5924;51.398;7.088;2023-11-19T02:39:47;11.40;99.90
11736;DHT22;5924;51.398;7.088;2023-11-19T02:42:13;11.50;99.90
11736;DHT22;5924;51.398;7.088;2023-11-19T02:44:38;11.50;99.90
11736;DHT22;5924;51.398;7.088;2023-11-19T02:47:05;11.50;99.90
11736;DHT22;5924;51.398;7.088;2023-11-19T02:49:33;11.60;99.90
11736;DHT22;5924;51.398;7.088;2023-11-19T02:51:59;11.50;99.90
11736;DHT22;5924;51.398;7.088;2023-11-19T02:54:24;12.90;99.90
11736;DHT22;5924;51.398;7.088;2023-11-19T02:56:52;11.60;99.90
11736;DHT22;5924;51.398;7.088;2023-11-19T02:59:21;11.60;99.90
11736;DHT22;5924;51.398;7.088;2023-11-19T03:01:53;11.60;99.90
11736;DHT22;5924;51.398;7.088;2023-11-19T03:04:19;11.60;99.90
11736;DHT22;5924;51.398;7.088;2023-11-19T03:06:48;11.70;99.90
11736;DHT22;5924;51.398;7.088;2023-11-19T03:09:14;11.70;99.90
11736;DHT22;5924;51.398;7.088;2023-11-19T03:11:40;11.70;99.90
11736;DHT22;5924;51.398;7.088;2023-11-19T03:14:05;11.70;99.90
11736;DHT22;5924;51.398;7.088;2023-11-19T03:16:31;11.70;99.90
11736;DHT22;5924;51.398;7.088;2023-11-19T03:18:57;11.80;99.90
11736;DHT22;5924;51.398;7.088;2023-11-19T03:21:29;11.70;99.90
11736;DHT22;5924;51.398;7.088;2023-11-19T03:23:55;11.80;99.90
11736;DHT22;5924;51.398;7.088;2023-11-19T03:26:21;11.80;99.90
11736;DHT22;5924;51.398;7.088;2023-11-19T03:28:47;11.80;99.90
11736;DHT22;5924;51.398;7.088;2023-11-19T03:31:13;11.80;99.90
11736;DHT22;5924;51.398;7.088;2023-11-19T03:33:39;11.80;99.90
11736;DHT22;5924;51.398;7.088;2023-11-19T03:36:05;11.80;99.90
11736;DHT22;5924;51.398;7.088;2023-11-19T03:38:31;11.80;99.90
11736;DHT22;5924;51.398;7.088;2023-11-19T03:40:57;11.80;99.90
11736;DHT22;5924;51.398;7.088;2023-11-19T03:43:22;11.80;99.90
11736;DHT22;5924;51.398;7.088;2023-11-19T03:45:48;11.70;99.90
11736;DHT22;5924;51.398;7.088;2023-11-19T03:48:14;11.70;99.90
11736;DHT22;5924;51.398;7.088;2023-11-19T03:50:42;11.70;99.90
11736;DHT22;5924;51.398;7.088;2023-11-19T03:53:07;11.70;99.90
11736;DHT22;5924;51.398;7.088;2023-11-19T03:55:33;11.70;99.90
11736;DHT22;5924;51.398;7.088;2023-11-19T03:57:59;11.70;99.90
11736;DHT22;5924;51.398;7.088;2023-11-19T04:00:24;11.60;99.90
11736;DHT22;5924;51.398;7.088;2023-11-19T04:02:50;11.50;99.90
11736;DHT22;5924;51.398;7.088;2023-11-19T04:05:16;11.50;99.90
11736;DHT22;5924;51.398;7.088;2023-11-19T04:07:44;11.50;99.90
11736;DHT22;5924;51.398;7.088;2023-11-19T04:10:09;11.40;99.90
11736;DHT22;5924;51.398;7.088;2023-11-19T04:12:35;11.40;99.90
11736;DHT22;5924;51.398;7.088;2023-11-19T04:15:01;11.30;99.90
11736;DHT22;5924;51.398;7.088;2023-11-19T04:17:27;11.30;99.90
11736;DHT22;5924;51.398;7.088;2023-11-19T04:19:53;11.30;99.90
11736;DHT22;5924;51.398;7.088;2023-11-19T04:22:19;11.20;99.90
11736;DHT22;5924;51.398;7.088;2023-11-19T04:24:45;11.20;99.90
11736;DHT22;5924;51.398;7.088;2023-11-19T04:27:11;11.20;99.90
11736;DHT22;5924;51.398;7.088;2023-11-19T04:29:37;11.10;99.90
11736;DHT22;5924;51.398;7.088;2023-11-19T04:32:03;11.20;99.90
11736;DHT22;5924;51.398;7.088;2023-11-19T04:34:28;11.30;99.90
11736;DHT22;5924;51.398;7.088;2023-11-19T04:36:54;11.20;99.90
11736;DHT22;5924;51.398;7.088;2023-11-19T04:39:20;11.20;99.90
11736;DHT22;5924;51.398;7.088;2023-11-19T04:41:49;11.10;99.90
11736;DHT22;5924;51.398;7.088;2023-11-19T04:44:16;11.10;99.90
11736;DHT22;5924;51.398;7.088;2023-11-19T04:46:42;11.10;99.90
11736;DHT22;5924;51.398;7.088;2023-11-19T04:49:10;11.10;99.90
11736;DHT22;5924;51.398;7.088;2023-11-19T04:51:45;11.10;99.90
11736;DHT22;5924;51.398;7.088;2023-11-19T04:54:13;11.10;99.90
11736;DHT22;5924;51.398;7.088;2023-11-19T04:56:40;11.10;99.90
11736;DHT22;5924;51.398;7.088;2023-11-19T04:59:06;11.10;99.90
11736;DHT22;5924;51.398;7.088;2023-11-19T05:01:33;11.00;99.90
11736;DHT22;5924;51.398;7.088;2023-11-19T05:03:58;11.00;99.90
11736;DHT22;5924;51.398;7.088;2023-11-19T05:06:31;11.00;99.90
11736;DHT22;5924;51.398;7.088;2023-11-19T05:09:00;11.20;99.90
11736;DHT22;5924;51.398;7.088;2023-11-19T05:11:33;11.10;99.90
11736;DHT22;5924;51.398;7.088;2023-11-19T05:14:00;13.70;99.90
11736;DHT22;5924;51.398;7.088;2023-11-19T05:16:25;11.20;99.90
11736;DHT22;5924;51.398;7.088;2023-11-19T05:18:51;11.20;99.90
11736;DHT22;5924;51.398;7.088;2023-11-19T05:21:17;11.20;99.90
11736;DHT22;5924;51.398;7.088;2023-11-19T05:23:43;11.20;99.90
11736;DHT22;5924;51.398;7.088;2023-11-19T05:26:08;11.20;99.90
11736;DHT22;5924;51.398;7.088;2023-11-19T05:28:38;11.20;99.90
11736;DHT22;5924;51.398;7.088;2023-11-19T05:31:05;11.20;99.90
11736;DHT22;5924;51.398;7.088;2023-11-19T05:33:31;11.30;99.90
11736;DHT22;5924;51.398;7.088;2023-11-19T05:35:57;11.30;99.90
11736;DHT22;5924;51.398;7.088;2023-11-19T05:38:23;11.30;99.90
11736;DHT22;5924;51.398;7.088;2023-11-19T05:40:48;11.30;99.90
11736;DHT22;5924;51.398;7.088;2023-11-19T05:43:15;11.30;99.90
11736;DHT22;5924;51.398;7.088;2023-11-19T05:45:42;11.30;99.90
11736;DHT22;5924;51.398;7.088;2023-11-19T05:48:08;11.30;99.90
11736;DHT22;5924;51.398;7.088;2023-11-19T05:50:35;11.30;99.90
11736;DHT22;5924;51.398;7.088;2023-11-19T05:53:00;11.40;99.90
11736;DHT22;5924;51.398;7.088;2023-11-19T05:55:26;11.40;99.90
11736;DHT22;5924;51.398;7.088;2023-11-19T05:57:53;11.40;99.90
11736;DHT22;5924;51.398;7.088;2023-11-19T06:00:19;11.40;99.90
11736;DHT22;5924;51.398;7.088;2023-11-19T06:02:45;11.40;99.90
11736;DHT22;5924;51.398;7.088;2023-11-19T06:05:11;11.40;99.90
11736;DHT22;5924;51.398;7.088;2023-11-19T06:07:37;11.40;99.90
11736;DHT22;5924;51.398;7.088;2023-11-19T06:10:04;11.50;99.90
11736;DHT22;5924;51.398;7.088;2023-11-19T06:12:33;11.50;99.90
11736;DHT22;5924;51.398;7.088;2023-11-19T06:15:00;11.50;99.90
11736;DHT22;5924;51.398;7.088;2023-11-19T06:17:25;11.50;99.90
11736;DHT22;5924;51.398;7.088;2023-11-19T06:19:51;11.50;99.90
11736;DHT22;5924;51.398;7.088;2023-11-19T06:22:17;11.50;99.90
11736;DHT22;5924;51.398;7.088;2023-11-19T06:24:43;11.50;99.90
11736;DHT22;5924;51.398;7.088;2023-11-19T06:27:08;11.50;99.90
11736;DHT22;5924;51.398;7.088;2023-11-19T06:29:34;11.50;99.90
11736;DHT22;5924;51.398;7.088;2023-11-19T06:32:00;11.50;99.90
11736;DHT22;5924;51.398;7.088;2023-11-19T06:34:26;11.50;99.90
11736;DHT22;5924;51.398;7.088;2023-11-19T06:36:51;11.50;99.90
11736;DHT22;5924;51.398;7.088;2023-11-19T06:39:18;11.40;99.90
11736;DHT22;5924;51.398;7.088;2023-11-19T06:41:46;11.30;99.90
11736;DHT22;5924;51.398;7.088;2023-11-19T06:44:12;11.30;99.90
11736;DHT22;5924;51.398;7.088;2023-11-19T06:46:39;11.30;99.90
11736;DHT22;5924;51.398;7.088;2023-11-19T06:49:05;11.20;99.90
11736;DHT22;5924;51.398;7.088;2023-11-19T06:51:33;11.20;99.90
11736;DHT22;5924;51.398;7.088;2023-11-19T06:53:59;11.20;99.90
11736;DHT22;5924;51.398;7.088;2023-11-19T06:56:25;11.10;99.90
11736;DHT22;5924;51.398;7.088;2023-11-19T06:58:51;11.10;99.90
11736;DHT22;5924;51.398;7.088;2023-11-19T07:01:18;11.10;99.90
11736;DHT22;5924;51.398;7.088;2023-11-19T07:03:47;11.00;99.90
11736;DHT22;5924;51.398;7.088;2023-11-19T07:06:13;11.00;99.90
11736;DHT22;5924;51.398;7.088;2023-11-19T07:08:42;11.00;99.90
11736;DHT22;5924;51.398;7.088;2023-11-19T07:11:12;11.00;99.90
11736;DHT22;5924;51.398;7.088;2023-11-19T07:13:37;10.90;99.90
11736;DHT22;5924;51.398;7.088;2023-11-19T07:16:04;10.90;99.90
11736;DHT22;5924;51.398;7.088;2023-11-19T07:18:29;10.90;99.90
11736;DHT22;5924;51.398;7.088;2023-11-19T07:20:55;10.90;99.90
11736;DHT22;5924;51.398;7.088;2023-11-19T07:23:21;10.90;99.90
11736;DHT22;5924;51.398;7.088;2023-11-19T07:25:47;10.80;99.90
11736;DHT22;5924;51.398;7.088;2023-11-19T07:28:13;10.80;99.90
11736;DHT22;5924;51.398;7.088;2023-11-19T07:30:39;10.80;99.90
11736;DHT22;5924;51.398;7.088;2023-11-19T07:33:05;10.90;99.90
11736;DHT22;5924;51.398;7.088;2023-11-19T07:35:32;10.90;99.90
11736;DHT22;5924;51.398;7.088;2023-11-19T07:37:58;10.80;99.90
11736;DHT22;5924;51.398;7.088;2023-11-19T07:40:26;10.70;99.90
11736;DHT22;5924;51.398;7.088;2023-11-19T07:42:52;10.70;99.90
11736;DHT22;5924;51.398;7.088;2023-11-19T07:45:17;10.60;99.90
11736;DHT22;5924;51.398;7.088;2023-11-19T07:47:44;11.20;99.90
11736;DHT22;5924;51.398;7.088;2023-11-19T07:50:12;10.60;99.90
11736;DHT22;5924;51.398;7.088;2023-11-19T07:52:42;10.70;99.90
11736;DHT22;5924;51.398;7.088;2023-11-19T07:55:08;10.80;99.90
11736;DHT22;5924;51.398;7.088;2023-11-19T07:57:34;10.80;99.90
11736;DHT22;5924;51.398;7.088;2023-11-19T07:59:59;10.80;99.90
11736;DHT22;5924;51.398;7.088;2023-11-19T08:02:27;10.80;99.90
11736;DHT22;5924;51.398;7.088;2023-11-19T08:04:52;10.80;99.90
11736;DHT22;5924;51.398;7.088;2023-11-19T08:07:20;10.80;99.90
11736;DHT22;5924;51.398;7.088;2023-11-19T08:09:46;10.70;99.90
11736;DHT22;5924;51.398;7.088;2023-11-19T08:12:12;10.70;99.90
11736;DHT22;5924;51.398;7.088;2023-11-19T08:14:40;11.20;99.90
11736;DHT22;5924;51.398;7.088;2023-11-19T08:17:05;10.80;99.90
11736;DHT22;5924;51.398;7.088;2023-11-19T08:19:32;10.80;99.90
11736;DHT22;5924;51.398;7.088;2023-11-19T08:21:57;10.80;99.90
11736;DHT22;5924;51.398;7.088;2023-11-19T08:24:23;10.90;99.90
11736;DHT22;5924;51.398;7.088;2023-11-19T08:26:49;11.00;99.90
11736;DHT22;5924;51.398;7.088;2023-11-19T08:29:14;11.10;99.90
11736;DHT22;5924;51.398;7.088;2023-11-19T08:31:40;11.20;99.90
11736;DHT22;5924;51.398;7.088;2023-11-19T08:34:06;11.20;99.90
11736;DHT22;5924;51.398;7.088;2023-11-19T08:36:34;11.20;99.90
11736;DHT22;5924;51.398;7.088;2023-11-19T08:39:00;11.10;99.90
11736;DHT22;5924;51.398;7.088;2023-11-19T08:41:26;11.10;99.90
11736;DHT22;5924;51.398;7.088;2023-11-19T08:43:52;12.60;99.90
11736;DHT22;5924;51.398;7.088;2023-11-19T08:46:18;11.10;99.90
11736;DHT22;5924;51.398;7.088;2023-11-19T08:48:44;11.20;99.90
11736;DHT22;5924;51.398;7.088;2023-11-19T08:51:10;11.30;99.90
11736;DHT22;5924;51.398;7.088;2023-11-19T08:53:35;11.40;99.90
11736;DHT22;5924;51.398;7.088;2023-11-19T08:56:01;11.40;99.90
11736;DHT22;5924;51.398;7.088;2023-11-19T08:58:28;11.40;99.90
11736;DHT22;5924;51.398;7.088;2023-11-19T09:00:54;11.30;99.90
11736;DHT22;5924;51.398;7.088;2023-11-19T09:03:20;11.30;99.90
11736;DHT22;5924;51.398;7.088;2023-11-19T09:05:46;11.40;99.90
11736;DHT22;5924;51.398;7.088;2023-11-19T09:08:12;11.50;99.90
11736;DHT22;5924;51.398;7.088;2023-11-19T09:10:37;11.50;99.90
11736;DHT22;5924;51.398;7.088;2023-11-19T09:13:03;11.60;99.90
11736;DHT22;5924;51.398;7.088;2023-11-19T09:15:29;11.70;99.90
11736;DHT22;5924;51.398;7.088;2023-11-19T09:17:55;11.70;99.90
11736;DHT22;5924;51.398;7.088;2023-11-19T09:20:21;11.80;99.90
11736;DHT22;5924;51.398;7.088;2023-11-19T09:22:47;11.80;99.90
11736;DHT22;5924;51.398;7.088;2023-11-19T09:25:12;11.90;99.90
11736;DHT22;5924;51.398;7.088;2023-11-19T09:27:42;12.00;99.90
11736;DHT22;5924;51.398;7.088;2023-11-19T09:30:09;12.10;99.90
11736;DHT22;5924;51.398;7.088;2023-11-19T09:32:34;12.10;99.90
11736;DHT22;5924;51.398;7.088;2023-11-19T09:35:00;12.20;99.90
11736;DHT22;5924;51.398;7.088;2023-11-19T09:37:26;12.30;99.90
11736;DHT22;5924;51.398;7.088;2023-11-19T09:39:52;12.30;99.90
11736;DHT22;5924;51.398;7.088;2023-11-19T09:42:19;12.30;99.90
11736;DHT22;5924;51.398;7.088;2023-11-19T09:44:44;14.70;99.90
11736;DHT22;5924;51.398;7.088;2023-11-19T09:47:11;12.30;99.90
11736;DHT22;5924;51.398;7.088;2023-11-19T09:49:39;12.30;99.90
11736;DHT22;5924;51.398;7.088;2023-11-19T09:52:05;12.30;99.90
11736;DHT22;5924;51.398;7.088;2023-11-19T09:54:31;12.30;99.90
11736;DHT22;5924;51.398;7.088;2023-11-19T09:56:57;12.20;99.90
11736;DHT22;5924;51.398;7.088;2023-11-19T09:59:29;12.20;99.90
11736;DHT22;5924;51.398;7.088;2023-11-19T10:01:56;12.20;99.90
11736;DHT22;5924;51.398;7.088;2023-11-19T10:04:22;12.20;99.90
11736;DHT22;5924;51.398;7.088;2023-11-19T10:06:50;12.20;99.90
11736;DHT22;5924;51.398;7.088;2023-11-19T10:09:16;12.30;99.90
11736;DHT22;5924;51.398;7.088;2023-11-19T10:11:42;12.40;99.90
11736;DHT22;5924;51.398;7.088;2023-11-19T10:14:08;12.40;99.90
11736;DHT22;5924;51.398;7.088;2023-11-19T10:16:35;12.50;99.90
11736;DHT22;5924;51.398;7.088;2023-11-19T10:19:00;12.50;99.90
11736;DHT22;5924;51.398;7.088;2023-11-19T10:21:26;12.60;99.90
11736;DHT22;5924;51.398;7.088;2023-11-19T10:23:56;12.60;99.90
11736;DHT22;5924;51.398;7.088;2023-11-19T10:26:24;12.60;99.90
11736;DHT22;5924;51.398;7.088;2023-11-19T10:28:50;12.60;99.90
11736;DHT22;5924;51.398;7.088;2023-11-19T10:31:17;12.60;99.90
11736;DHT22;5924;51.398;7.088;2023-11-19T10:33:43;12.40;99.90
11736;DHT22;5924;51.398;7.088;2023-11-19T10:36:11;12.40;99.90
11736;DHT22;5924;51.398;7.088;2023-11-19T10:38:38;12.40;99.90
11736;DHT22;5924;51.398;7.088;2023-11-19T10:41:04;13.70;99.90
11736;DHT22;5924;51.398;7.088;2023-11-19T10:43:30;12.20;99.90
11736;DHT22;5924;51.398;7.088;2023-11-19T10:46:09;12.50;99.90
11736;DHT22;5924;51.398;7.088;2023-11-19T10:48:36;12.50;99.90
11736;DHT22;5924;51.398;7.088;2023-11-19T10:51:04;12.50;99.90
11736;DHT22;5924;51.398;7.088;2023-11-19T10:53:35;12.50;99.90
11736;DHT22;5924;51.398;7.088;2023-11-19T10:56:02;12.50;99.90
11736;DHT22;5924;51.398;7.088;2023-11-19T10:58:32;12.50;99.90
11736;DHT22;5924;51.398;7.088;2023-11-19T11:01:01;12.50;99.90
11736;DHT22;5924;51.398;7.088;2023-11-19T11:03:40;12.60;99.90
11736;DHT22;5924;51.398;7.088;2023-11-19T11:06:06;12.60;99.90
11736;DHT22;5924;51.398;7.088;2023-11-19T11:08:32;12.60;99.90
11736;DHT22;5924;51.398;7.088;2023-11-19T11:11:02;12.60;99.90
11736;DHT22;5924;51.398;7.088;2023-11-19T11:13:30;12.70;99.90
11736;DHT22;5924;51.398;7.088;2023-11-19T11:15:57;12.80;99.90
11736;DHT22;5924;51.398;7.088;2023-11-19T11:18:26;13.00;99.90
11736;DHT22;5924;51.398;7.088;2023-11-19T11:21:00;13.00;99.90
11736;DHT22;5924;51.398;7.088;2023-11-19T11:37:39;13.30;99.90
11736;DHT22;5924;51.398;7.088;2023-11-19T11:40:14;13.20;99.90
11736;DHT22;5924;51.398;7.088;2023-11-19T11:42:41;13.10;99.90
11736;DHT22;5924;51.398;7.088;2023-11-19T11:45:09;13.00;99.90
11736;DHT22;5924;51.398;7.088;2023-11-19T11:50:16;13.10;99.90
11736;DHT22;5924;51.398;7.088;2023-11-19T11:55:25;13.40;99.90
11736;DHT22;5924;51.398;7.088;2023-11-19T11:57:51;13.60;99.90
11736;DHT22;5924;51.398;7.088;2023-11-19T12:02:56;13.40;99.90
11736;DHT22;5924;51.398;7.088;2023-11-19T12:05:22;13.40;99.90
11736;DHT22;5924;51.398;7.088;2023-11-19T12:08:00;13.30;99.90
11736;DHT22;5924;51.398;7.088;2023-11-19T12:10:29;13.20;99.90
11736;DHT22;5924;51.398;7.088;2023-11-19T12:13:01;13.00;99.90
11736;DHT22;5924;51.398;7.088;2023-11-19T12:15:30;12.90;99.90
11736;DHT22;5924;51.398;7.088;2023-11-19T12:17:56;13.00;99.90
11736;DHT22;5924;51.398;7.088;2023-11-19T12:20:23;13.10;99.90
11736;DHT22;5924;51.398;7.088;2023-11-19T12:22:52;13.30;99.90
11736;DHT22;5924;51.398;7.088;2023-11-19T12:25:18;13.30;99.90
11736;DHT22;5924;51.398;7.088;2023-11-19T12:27:49;13.40;99.90
11736;DHT22;5924;51.398;7.088;2023-11-19T12:30:24;13.40;99.90
11736;DHT22;5924;51.398;7.088;2023-11-19T12:32:51;13.40;99.90
11736;DHT22;5924;51.398;7.088;2023-11-19T12:35:18;13.40;99.90
11736;DHT22;5924;51.398;7.088;2023-11-19T12:37:46;13.50;99.90
11736;DHT22;5924;51.398;7.088;2023-11-19T12:40:21;13.50;99.90
11736;DHT22;5924;51.398;7.088;2023-11-19T12:45:13;13.50;99.90
11736;DHT22;5924;51.398;7.088;2023-11-19T12:47:43;13.50;99.90
11736;DHT22;5924;51.398;7.088;2023-11-19T12:50:09;13.40;99.90
11736;DHT22;5924;51.398;7.088;2023-11-19T12:52:36;13.30;99.90
11736;DHT22;5924;51.398;7.088;2023-11-19T12:57:48;13.00;99.90
11736;DHT22;5924;51.398;7.088;2023-11-19T13:00:24;13.00;99.90
11736;DHT22;5924;51.398;7.088;2023-11-19T13:02:52;12.90;99.90
11736;DHT22;5924;51.398;7.088;2023-11-19T13:07:47;12.50;99.90
11736;DHT22;5924;51.398;7.088;2023-11-19T13:10:12;12.30;99.90
11736;DHT22;5924;51.398;7.088;2023-11-19T13:12:39;12.10;99.90
11736;DHT22;5924;51.398;7.088;2023-11-19T13:15:05;11.90;99.90
11736;DHT22;5924;51.398;7.088;2023-11-19T13:17:30;11.80;99.90
11736;DHT22;5924;51.398;7.088;2023-11-19T13:19:56;11.70;99.90
11736;DHT22;5924;51.398;7.088;2023-11-19T13:22:22;11.60;99.90
11736;DHT22;5924;51.398;7.088;2023-11-19T13:24:48;11.50;99.90
11736;DHT22;5924;51.398;7.088;2023-11-19T13:27:14;11.40;99.90
11736;DHT22;5924;51.398;7.088;2023-11-19T13:29:39;11.30;99.90
11736;DHT22;5924;51.398;7.088;2023-11-19T13:32:05;11.20;99.90
11736;DHT22;5924;51.398;7.088;2023-11-19T13:34:31;11.20;99.90
11736;DHT22;5924;51.398;7.088;2023-11-19T13:36:57;11.20;99.90
11736;DHT22;5924;51.398;7.088;2023-11-19T13:39:22;11.20;99.90
11736;DHT22;5924;51.398;7.088;2023-11-19T13:41:49;13.10;99.90
11736;DHT22;5924;51.398;7.088;2023-11-19T13:44:16;11.40;99.90
11736;DHT22;5924;51.398;7.088;2023-11-19T13:46:45;11.50;99.90
11736;DHT22;5924;51.398;7.088;2023-11-19T13:49:11;11.50;99.90
11736;DHT22;5924;51.398;7.088;2023-11-19T13:51:37;11.60;99.90
11736;DHT22;5924;51.398;7.088;2023-11-19T13:54:02;11.70;99.90
11736;DHT22;5924;51.398;7.088;2023-11-19T13:56:28;11.80;99.90
11736;DHT22;5924;51.398;7.088;2023-11-19T13:58:54;11.90;99.90
11736;DHT22;5924;51.398;7.088;2023-11-19T14:01:19;11.90;99.90
11736;DHT22;5924;51.398;7.088;2023-11-19T14:03:45;11.90;99.90
11736;DHT22;5924;51.398;7.088;2023-11-19T14:06:11;11.90;99.90
11736;DHT22;5924;51.398;7.088;2023-11-19T14:08:38;11.90;99.90
11736;DHT22;5924;51.398;7.088;2023-11-19T14:11:04;11.90;99.90
11736;DHT22;5924;51.398;7.088;2023-11-19T14:13:30;11.80;99.90
11736;DHT22;5924;51.398;7.088;2023-11-19T14:15:56;11.80;99.90
11736;DHT22;5924;51.398;7.088;2023-11-19T14:18:22;11.80;99.90
11736;DHT22;5924;51.398;7.088;2023-11-19T14:20:48;9.50;99.90
11736;DHT22;5924;51.398;7.088;2023-11-19T14:23:14;11.90;99.90
11736;DHT22;5924;51.398;7.088;2023-11-19T14:25:39;11.90;99.90
11736;DHT22;5924;51.398;7.088;2023-11-19T14:28:05;11.90;99.90
11736;DHT22;5924;51.398;7.088;2023-11-19T14:30:31;11.80;99.90
11736;DHT22;5924;51.398;7.088;2023-11-19T14:32:56;11.60;99.90
11736;DHT22;5924;51.398;7.088;2023-11-19T14:35:22;11.40;99.90
11736;DHT22;5924;51.398;7.088;2023-11-19T14:37:48;11.20;99.90
11736;DHT22;5924;51.398;7.088;2023-11-19T14:40:14;11.10;99.90
11736;DHT22;5924;51.398;7.088;2023-11-19T14:42:40;11.00;99.90
11736;DHT22;5924;51.398;7.088;2023-11-19T14:45:06;11.00;99.90
11736;DHT22;5924;51.398;7.088;2023-11-19T14:47:32;11.00;99.90
11736;DHT22;5924;51.398;7.088;2023-11-19T14:49:58;10.90;99.90
11736;DHT22;5924;51.398;7.088;2023-11-19T14:52:24;10.90;99.90
11736;DHT22;5924;51.398;7.088;2023-11-19T14:54:49;10.90;99.90
11736;DHT22;5924;51.398;7.088;2023-11-19T14:57:16;10.60;99.90
11736;DHT22;5924;51.398;7.088;2023-11-19T14:59:42;10.70;99.90
11736;DHT22;5924;51.398;7.088;2023-11-19T15:02:08;10.70;99.90
11736;DHT22;5924;51.398;7.088;2023-11-19T15:04:34;10.70;99.90
11736;DHT22;5924;51.398;7.088;2023-11-19T15:07:00;10.70;99.90
11736;DHT22;5924;51.398;7.088;2023-11-19T15:09:26;10.70;99.90
11736;DHT22;5924;51.398;7.088;2023-11-19T15:11:55;10.60;99.90
11736;DHT22;5924;51.398;7.088;2023-11-19T15:14:20;10.60;99.90
11736;DHT22;5924;51.398;7.088;2023-11-19T15:16:47;10.50;99.90
11736;DHT22;5924;51.398;7.088;2023-11-19T15:19:13;10.50;99.90
11736;DHT22;5924;51.398;7.088;2023-11-19T15:21:40;13.00;99.90
11736;DHT22;5924;51.398;7.088;2023-11-19T15:24:07;10.50;99.90
11736;DHT22;5924;51.398;7.088;2023-11-19T15:26:36;10.40;99.90
11736;DHT22;5924;51.398;7.088;2023-11-19T15:29:03;10.40;99.90
11736;DHT22;5924;51.398;7.088;2023-11-19T15:31:29;10.50;99.90
11736;DHT22;5924;51.398;7.088;2023-11-19T15:33:55;8.90;99.90
11736;DHT22;5924;51.398;7.088;2023-11-19T15:36:21;10.50;99.90
11736;DHT22;5924;51.398;7.088;2023-11-19T15:38:47;9.90;99.90
11736;DHT22;5924;51.398;7.088;2023-11-19T15:41:13;10.40;99.90
11736;DHT22;5924;51.398;7.088;2023-11-19T15:43:39;10.40;99.90
11736;DHT22;5924;51.398;7.088;2023-11-19T15:46:08;10.30;99.90
11736;DHT22;5924;51.398;7.088;2023-11-19T15:48:34;10.30;99.90
11736;DHT22;5924;51.398;7.088;2023-11-19T15:51:00;10.20;99.90
11736;DHT22;5924;51.398;7.088;2023-11-19T15:53:26;10.20;99.90
11736;DHT22;5924;51.398;7.088;2023-11-19T15:55:52;10.20;99.90
11736;DHT22;5924;51.398;7.088;2023-11-19T15:58:19;10.20;99.90
11736;DHT22;5924;51.398;7.088;2023-11-19T16:00:44;10.20;99.90
11736;DHT22;5924;51.398;7.088;2023-11-19T16:03:13;10.20;99.90
11736;DHT22;5924;51.398;7.088;2023-11-19T16:05:39;10.20;99.90
11736;DHT22;5924;51.398;7.088;2023-11-19T16:08:04;10.20;99.90
11736;DHT22;5924;51.398;7.088;2023-11-19T16:10:31;10.20;99.90
11736;DHT22;5924;51.398;7.088;2023-11-19T16:12:57;10.30;99.90
11736;DHT22;5924;51.398;7.088;2023-11-19T16:15:22;10.20;99.90